Strona główna
METAR-TAF:

METAR-TAF

Lotnisko :

Port lotniczy Bogotá-El Dorado

Bogota, Kolumbia

Szerokość geograficzna: 04-43N, Długość geograficzna: 074-09W, wysokość: 2547 m

Aktualna obserwacja pogody

Raport powstał 33 minut temu, godzina 01:00 UTC
Wiatr 2 kt z kierunków zmiennych
Temperatura 10°C
Wilgotność 93%
Ciśnienie 1028 hPa
Widzialność 10 km lub więcej
Mało chmury na wysokości 2000 ft

METAR: SKBO 170100Z VRB02KT 9999 FEW020 10/09 A3037

czas: 20:33 (01:33 UTC)

Prognoza

Raport powstał 2 godziny i 33 minut temu, godzina 23:00 UTC
Prognoza ważna od 17 godzina 00 UTC do 17 godzina 24 UTC
Wiatr 3 kt z kierunków zmiennych
Widzialność 10 km lub więcej
Mało chmury na wysokości 1500 ft
Przejściowo
od 17 godzina 10 UTC do 17 godzina 13 UTC
Widzialność: 0400 m
na wysokości 100 ft
mgła
Stopniowe zmiany
od 17 godzina 15 UTC do 17 godzina 17 UTC
Wiatr 12 kt od południowy wschód

TAF: SKBO 162300Z 1700/1724 VRB03KT 9999 FEW015 TEMPO 1710/1713 0400 FG VV001 BECMG 1715/1717 14012KT TX22/1718Z TN04/1711Z

Obserwacja i prognoza pogody dla ponad 4000 lotnisk (raport METAR i TAF).

Dostępne stacje oznaczono żółtymi i czerwonymi punktami na mapie.

Najedź kursorem aby zobaczyć nazwę stacji.

Kliknij aby zobaczyć obserwacje i prognozy pogody.

Aby zmienić mapę: kliknij na zielony przycisk z czarnym krzyżykiem, aby powiększyć; na zielony przycisk z myślnikiem, aby pomniejszyć; na zielone strzałki, aby przejść do map sąsiednich.


METAR-TAF: